createdAt,value
2019-03-04T00:00:57.370Z,994.80
2019-03-04T00:01:57.381Z,994.68
2019-03-04T00:02:57.357Z,994.62
2019-03-04T00:03:57.334Z,994.66
2019-03-04T00:04:57.329Z,994.64
2019-03-04T00:05:57.316Z,994.70
2019-03-04T00:06:57.331Z,994.65
2019-03-04T00:07:57.291Z,994.64
2019-03-04T00:08:57.288Z,994.67
2019-03-04T00:09:57.264Z,994.61
2019-03-04T00:10:57.268Z,994.68
2019-03-04T00:11:57.271Z,994.58
2019-03-04T00:12:57.247Z,994.56
2019-03-04T00:13:57.238Z,994.68
2019-03-04T00:14:57.216Z,994.65
2019-03-04T00:15:57.210Z,994.56
2019-03-04T00:16:57.216Z,994.52
2019-03-04T00:17:57.191Z,994.61
2019-03-04T00:18:57.175Z,994.61
2019-03-04T00:19:57.168Z,994.63
2019-03-04T00:20:57.146Z,994.68
2019-03-04T00:21:57.153Z,994.55
2019-03-04T00:22:57.150Z,994.46
2019-03-04T00:23:57.147Z,994.37
2019-03-04T00:24:57.111Z,994.16
2019-03-04T00:25:57.108Z,994.25
2019-03-04T00:26:57.083Z,994.22
2019-03-04T00:27:57.093Z,994.32
2019-03-04T00:28:57.058Z,994.24
2019-03-04T00:29:57.050Z,994.17
2019-03-04T00:30:57.045Z,994.14
2019-03-04T00:31:57.033Z,994.14
2019-03-04T00:32:57.024Z,994.15
2019-03-04T00:33:57.009Z,994.16
2019-03-04T00:34:57.002Z,994.16
2019-03-04T00:35:56.986Z,994.26
2019-03-04T00:36:56.969Z,994.15
2019-03-04T00:37:57.009Z,994.30
2019-03-04T00:38:56.945Z,994.15
2019-03-04T00:39:56.955Z,994.15
2019-03-04T00:40:56.936Z,994.21
2019-03-04T00:41:56.920Z,994.13
2019-03-04T00:42:56.912Z,994.23
2019-03-04T00:43:56.914Z,994.04
2019-03-04T00:44:56.885Z,994.06
2019-03-04T00:45:57.826Z,993.98
2019-03-04T00:46:56.865Z,994.23
2019-03-04T00:47:56.843Z,994.25
2019-03-04T00:48:56.847Z,994.20
2019-03-04T00:49:57.117Z,994.24
2019-03-04T00:50:56.823Z,994.08
2019-03-04T00:51:56.821Z,993.99
2019-03-04T00:52:56.793Z,993.90
2019-03-04T00:53:56.805Z,993.97
2019-03-04T00:54:56.803Z,994.03
2019-03-04T00:55:56.758Z,993.99
2019-03-04T00:56:56.763Z,994.07
2019-03-04T00:57:56.733Z,994.01
2019-03-04T00:58:56.774Z,994.02
2019-03-04T00:59:56.713Z,993.99
2019-03-04T01:00:56.703Z,993.96
2019-03-04T01:01:56.692Z,993.91
2019-03-04T01:02:56.694Z,993.81
2019-03-04T01:03:56.707Z,993.86
2019-03-04T01:04:56.669Z,993.77
2019-03-04T01:05:56.655Z,993.76
2019-03-04T01:06:56.653Z,993.65
2019-03-04T01:07:56.628Z,993.67
2019-03-04T01:08:56.634Z,993.78
2019-03-04T01:09:56.641Z,993.77
2019-03-04T01:10:56.602Z,993.64
2019-03-04T01:11:56.584Z,993.61
2019-03-04T01:12:56.590Z,993.72
2019-03-04T01:13:56.567Z,993.57
2019-03-04T01:14:56.573Z,993.46
2019-03-04T01:15:56.532Z,993.47
2019-03-04T01:16:56.541Z,993.48
2019-03-04T01:17:56.547Z,993.47
2019-03-04T01:18:56.516Z,993.42
2019-03-04T01:19:56.530Z,993.43
2019-03-04T01:20:56.476Z,993.37
2019-03-04T01:21:56.489Z,993.39
2019-03-04T01:22:56.455Z,993.36
2019-03-04T01:23:56.468Z,993.44
2019-03-04T01:24:56.447Z,993.46
2019-03-04T01:25:56.455Z,993.41
2019-03-04T01:26:56.420Z,993.27
2019-03-04T01:27:56.432Z,993.34
2019-03-04T01:28:56.397Z,993.22
2019-03-04T01:29:56.387Z,993.15
2019-03-04T01:30:56.402Z,993.20
2019-03-04T01:31:56.368Z,993.08
2019-03-04T01:32:56.362Z,993.13
2019-03-04T01:33:56.343Z,993.13
2019-03-04T01:34:56.332Z,992.98
2019-03-04T01:35:56.346Z,993.02
2019-03-04T01:36:56.308Z,992.89
2019-03-04T01:37:56.308Z,993.00
2019-03-04T01:38:56.329Z,992.83
2019-03-04T01:39:56.266Z,992.86
2019-03-04T01:40:56.304Z,992.87
2019-03-04T01:41:56.250Z,992.77
2019-03-04T01:42:56.239Z,992.81
2019-03-04T01:43:56.235Z,992.76
2019-03-04T01:44:56.215Z,992.72
2019-03-04T01:45:56.219Z,992.66
2019-03-04T01:46:56.215Z,992.54
2019-03-04T01:47:56.185Z,992.57
2019-03-04T01:48:56.174Z,992.63
2019-03-04T01:49:56.168Z,992.68
2019-03-04T01:50:56.181Z,992.65
2019-03-04T01:51:56.142Z,992.53
2019-03-04T01:52:56.135Z,992.67
2019-03-04T01:53:56.113Z,992.67
2019-03-04T01:54:56.113Z,992.76
2019-03-04T01:55:56.123Z,992.70
2019-03-04T01:56:56.124Z,992.74
2019-03-04T01:57:56.083Z,992.73
2019-03-04T01:58:56.094Z,992.71
2019-03-04T01:59:56.085Z,992.85
2019-03-04T02:00:56.094Z,992.76
2019-03-04T02:01:56.037Z,992.75
2019-03-04T02:02:56.069Z,992.83
2019-03-04T02:03:56.131Z,992.86
2019-03-04T02:04:56.053Z,992.93
2019-03-04T02:05:56.012Z,992.85
2019-03-04T02:06:56.037Z,992.77
2019-03-04T02:07:56.031Z,992.97
2019-03-04T02:08:55.950Z,992.99
2019-03-04T02:09:55.959Z,992.94
2019-03-04T02:10:55.934Z,992.92
2019-03-04T02:11:56.010Z,992.71
2019-03-04T02:12:55.933Z,992.76
2019-03-04T02:13:55.899Z,992.71
2019-03-04T02:14:55.887Z,992.75
2019-03-04T02:15:55.877Z,992.79
2019-03-04T02:16:55.906Z,992.69
2019-03-04T02:17:55.859Z,992.74
2019-03-04T02:18:55.836Z,992.86
2019-03-04T02:19:55.845Z,992.91
2019-03-04T02:20:55.821Z,992.87
2019-03-04T02:21:55.822Z,992.90
2019-03-04T02:22:55.806Z,992.77
2019-03-04T02:23:55.777Z,992.80
2019-03-04T02:24:55.787Z,992.80
2019-03-04T02:25:55.767Z,992.82
2019-03-04T02:26:55.769Z,992.86
2019-03-04T02:27:55.768Z,993.06
2019-03-04T02:28:55.749Z,993.08
2019-03-04T02:29:55.738Z,993.18
2019-03-04T02:30:55.709Z,993.06
2019-03-04T02:31:55.705Z,993.03
2019-03-04T02:32:55.708Z,993.07
2019-03-04T02:33:55.699Z,993.18
2019-03-04T02:34:55.660Z,993.18
2019-03-04T02:35:55.649Z,993.06
2019-03-04T02:36:55.648Z,993.07
2019-03-04T02:37:55.652Z,992.97
2019-03-04T02:38:55.625Z,992.92
2019-03-04T02:39:55.603Z,993.06
2019-03-04T02:40:55.614Z,992.84
2019-03-04T02:41:55.581Z,993.01
2019-03-04T02:42:55.583Z,992.91
2019-03-04T02:43:55.589Z,992.88
2019-03-04T02:44:55.566Z,992.86
2019-03-04T02:45:55.548Z,992.85
2019-03-04T02:46:55.529Z,992.87
2019-03-04T02:47:55.551Z,992.88
2019-03-04T02:48:55.508Z,992.82
2019-03-04T02:49:55.498Z,992.82
2019-03-04T02:50:55.490Z,992.74
2019-03-04T02:51:55.476Z,992.79
2019-03-04T02:52:55.456Z,992.77
2019-03-04T02:53:55.465Z,992.63
2019-03-04T02:54:55.451Z,992.58
2019-03-04T02:55:55.443Z,992.69
2019-03-04T02:56:55.420Z,992.64
2019-03-04T02:57:55.410Z,992.52
2019-03-04T02:58:55.416Z,992.46
2019-03-04T02:59:55.396Z,992.44
2019-03-04T03:00:55.374Z,992.57
2019-03-04T03:01:55.374Z,992.56
2019-03-04T03:02:55.359Z,992.59
2019-03-04T03:03:55.392Z,992.51
2019-03-04T03:04:55.339Z,992.43
2019-03-04T03:05:55.335Z,992.50
2019-03-04T03:06:55.321Z,992.23
2019-03-04T03:07:55.309Z,992.20
2019-03-04T03:08:55.314Z,992.34
2019-03-04T03:09:55.281Z,992.26
2019-03-04T03:10:55.270Z,992.27
2019-03-04T03:11:55.254Z,992.20
2019-03-04T03:12:55.261Z,992.18
2019-03-04T03:13:55.251Z,992.18
2019-03-04T03:14:55.248Z,992.01
2019-03-04T03:15:55.223Z,992.13
2019-03-04T03:16:55.202Z,992.01
2019-03-04T03:17:55.194Z,991.93
2019-03-04T03:18:55.192Z,991.78
2019-03-04T03:19:55.180Z,991.77
2019-03-04T03:20:55.172Z,991.80
2019-03-04T03:21:55.151Z,991.81
2019-03-04T03:22:55.188Z,991.92
2019-03-04T03:23:55.123Z,991.95
2019-03-04T03:24:55.123Z,991.96
2019-03-04T03:25:55.100Z,991.91
2019-03-04T03:26:55.090Z,991.86
2019-03-04T03:27:55.077Z,991.73
2019-03-04T03:28:55.062Z,991.74
2019-03-04T03:29:55.070Z,991.69
2019-03-04T03:30:55.045Z,991.67
2019-03-04T03:31:55.028Z,991.71
2019-03-04T03:32:55.031Z,991.59
2019-03-04T03:33:55.029Z,991.78
2019-03-04T03:34:54.999Z,991.68
2019-03-04T03:35:55.007Z,991.69
2019-03-04T03:36:54.976Z,991.63
2019-03-04T03:37:54.975Z,991.64
2019-03-04T03:38:54.959Z,991.56
2019-03-04T03:39:54.956Z,991.57
2019-03-04T03:40:54.941Z,991.41
2019-03-04T03:41:54.927Z,991.34
2019-03-04T03:42:54.913Z,991.40
2019-03-04T03:43:54.900Z,991.45
2019-03-04T03:44:54.886Z,991.56
2019-03-04T03:45:54.907Z,991.43
2019-03-04T03:46:54.878Z,991.45
2019-03-04T03:47:54.854Z,991.36
2019-03-04T03:48:54.852Z,991.47
2019-03-04T03:49:54.825Z,991.34
2019-03-04T03:50:54.836Z,991.29
2019-03-04T03:51:54.810Z,991.25
2019-03-04T03:52:54.799Z,991.23
2019-03-04T03:53:54.793Z,991.29
2019-03-04T03:54:54.772Z,991.20
2019-03-04T03:55:54.777Z,991.22
2019-03-04T03:56:54.750Z,991.30
2019-03-04T03:57:54.749Z,991.27
2019-03-04T03:58:54.751Z,991.28
2019-03-04T03:59:54.765Z,991.39
2019-03-04T04:00:54.738Z,991.28
2019-03-04T04:01:54.708Z,991.33
2019-03-04T04:02:54.679Z,991.30
2019-03-04T04:03:54.689Z,991.41
2019-03-04T04:04:54.670Z,991.38
2019-03-04T04:05:54.672Z,991.30
2019-03-04T04:06:54.691Z,991.36
2019-03-04T04:07:54.673Z,991.27
2019-03-04T04:08:54.633Z,991.36
2019-03-04T04:09:54.608Z,991.25
2019-03-04T04:10:54.608Z,991.21
2019-03-04T04:11:54.642Z,991.15
2019-03-04T04:12:54.575Z,991.25
2019-03-04T04:13:54.557Z,991.23
2019-03-04T04:14:54.556Z,991.23
2019-03-04T04:15:54.552Z,991.02
2019-03-04T04:16:54.551Z,990.98
2019-03-04T04:17:54.517Z,991.09
2019-03-04T04:18:54.531Z,990.88
2019-03-04T04:19:54.497Z,990.87
2019-03-04T04:20:54.492Z,991.03
2019-03-04T04:21:54.506Z,990.85
2019-03-04T04:22:54.478Z,990.86
2019-03-04T04:23:54.462Z,990.76
2019-03-04T04:24:54.442Z,990.77
2019-03-04T04:25:54.447Z,990.82
2019-03-04T04:26:54.430Z,990.68
2019-03-04T04:27:54.434Z,990.66
2019-03-04T04:28:55.392Z,990.64
2019-03-04T04:29:54.388Z,990.64
2019-03-04T04:30:54.395Z,990.59
2019-03-04T04:31:54.366Z,990.70
2019-03-04T04:32:54.378Z,990.50
2019-03-04T04:33:54.353Z,990.56
2019-03-04T04:34:54.353Z,990.46
2019-03-04T04:35:54.340Z,990.50
2019-03-04T04:36:54.318Z,990.50
2019-03-04T04:37:54.340Z,990.43
2019-03-04T04:38:54.284Z,990.41
2019-03-04T04:39:54.283Z,990.37
2019-03-04T04:40:54.280Z,990.36
2019-03-04T04:41:54.267Z,990.38
2019-03-04T04:42:54.268Z,990.28
2019-03-04T04:43:54.233Z,990.40
2019-03-04T04:44:54.237Z,990.45
2019-03-04T04:45:54.209Z,990.36
2019-03-04T04:46:54.204Z,990.22
2019-03-04T04:47:54.203Z,990.38
2019-03-04T04:48:54.170Z,990.35
2019-03-04T04:49:54.164Z,990.33
2019-03-04T04:50:54.154Z,990.17
2019-03-04T04:51:54.145Z,990.15
2019-03-04T04:52:54.158Z,990.22
2019-03-04T04:53:54.119Z,990.12
2019-03-04T04:54:54.116Z,990.06
2019-03-04T04:55:54.103Z,990.19
2019-03-04T04:56:54.078Z,990.11
2019-03-04T04:57:54.075Z,990.11
2019-03-04T04:58:54.111Z,990.10
2019-03-04T04:59:54.057Z,990.19
2019-03-04T05:00:54.037Z,990.10
2019-03-04T05:01:54.039Z,990.11
2019-03-04T05:02:54.015Z,990.10
2019-03-04T05:03:54.030Z,990.07
2019-03-04T05:04:54.000Z,989.99
2019-03-04T05:05:54.003Z,990.07
2019-03-04T05:06:53.969Z,990.05
2019-03-04T05:07:53.955Z,990.00
2019-03-04T05:08:53.979Z,990.02
2019-03-04T05:09:53.947Z,990.08
2019-03-04T05:10:53.953Z,990.07
2019-03-04T05:11:53.929Z,990.05
2019-03-04T05:12:53.907Z,989.99
2019-03-04T05:13:53.887Z,990.05
2019-03-04T05:14:53.904Z,990.11
2019-03-04T05:15:53.882Z,990.09
2019-03-04T05:16:53.866Z,990.14
2019-03-04T05:17:53.842Z,990.12
2019-03-04T05:18:53.839Z,990.11
2019-03-04T05:19:53.855Z,990.04
2019-03-04T05:20:53.836Z,990.03
2019-03-04T05:21:53.810Z,990.03
2019-03-04T05:22:53.810Z,990.03
2019-03-04T05:23:53.784Z,990.05
2019-03-04T05:24:53.787Z,989.84
2019-03-04T05:25:53.765Z,989.81
2019-03-04T05:26:53.754Z,989.82
2019-03-04T05:27:53.755Z,989.75
2019-03-04T05:28:53.728Z,989.69
2019-03-04T05:29:53.728Z,989.71
2019-03-04T05:30:53.710Z,989.81
2019-03-04T05:31:53.702Z,989.71
2019-03-04T05:32:53.699Z,989.61
2019-03-04T05:33:53.675Z,989.65
2019-03-04T05:34:53.708Z,989.62
2019-03-04T05:35:53.652Z,989.65
2019-03-04T05:36:53.662Z,989.67
2019-03-04T05:37:53.633Z,989.69
2019-03-04T05:38:53.633Z,989.64
2019-03-04T05:39:53.609Z,989.61
2019-03-04T05:40:53.679Z,989.76
2019-03-04T05:41:53.583Z,989.74
2019-03-04T05:42:53.610Z,989.63
2019-03-04T05:43:53.570Z,989.54
2019-03-04T05:44:53.564Z,989.59
2019-03-04T05:45:53.556Z,989.59
2019-03-04T05:46:53.540Z,989.58
2019-03-04T05:47:53.523Z,989.68
2019-03-04T05:48:53.516Z,989.65
2019-03-04T05:49:53.512Z,989.69
2019-03-04T05:50:53.528Z,989.54
2019-03-04T05:51:53.496Z,989.51
2019-03-04T05:52:53.464Z,989.64
2019-03-04T05:53:53.454Z,989.48
2019-03-04T05:54:53.443Z,989.47
2019-03-04T05:55:53.430Z,989.57
2019-03-04T05:56:53.506Z,989.65
2019-03-04T05:57:53.401Z,989.53
2019-03-04T05:58:53.403Z,989.61
2019-03-04T05:59:53.397Z,989.63
2019-03-04T06:00:53.415Z,989.47
2019-03-04T06:01:53.390Z,989.42
2019-03-04T06:02:53.353Z,989.50
2019-03-04T06:03:53.881Z,989.46
2019-03-04T06:04:53.344Z,989.48
2019-03-04T06:05:53.327Z,989.33
2019-03-04T06:06:53.349Z,989.38
2019-03-04T06:07:53.374Z,989.36
2019-03-04T06:08:53.308Z,989.35
2019-03-04T06:09:53.283Z,989.39
2019-03-04T06:10:53.269Z,989.46
2019-03-04T06:11:53.259Z,989.28
2019-03-04T06:12:53.255Z,989.32
2019-03-04T06:13:53.239Z,989.36
2019-03-04T06:14:53.279Z,989.38
2019-03-04T06:15:53.209Z,989.48
2019-03-04T06:16:53.220Z,989.44
2019-03-04T06:17:53.193Z,989.35
2019-03-04T06:18:53.177Z,989.44
2019-03-04T06:19:53.177Z,989.26
2019-03-04T06:20:53.158Z,989.21
2019-03-04T06:21:53.166Z,989.18
2019-03-04T06:22:53.139Z,989.09
2019-03-04T06:23:53.132Z,989.03
2019-03-04T06:24:53.119Z,989.10
2019-03-04T06:25:53.103Z,988.88
2019-03-04T06:26:53.100Z,988.85
2019-03-04T06:27:53.145Z,988.84
2019-03-04T06:28:53.069Z,988.89
2019-03-04T06:29:53.047Z,988.70
2019-03-04T06:30:53.065Z,988.85
2019-03-04T06:31:53.070Z,988.76
2019-03-04T06:32:53.027Z,988.80
2019-03-04T06:33:53.003Z,988.88
2019-03-04T06:34:53.021Z,988.94
2019-03-04T06:35:52.992Z,988.94
2019-03-04T06:36:53.158Z,988.91
2019-03-04T06:37:52.995Z,989.00
2019-03-04T06:38:52.954Z,988.87
2019-03-04T06:39:52.950Z,988.93
2019-03-04T06:40:52.950Z,988.91
2019-03-04T06:41:52.923Z,988.81
2019-03-04T06:42:52.944Z,988.64
2019-03-04T06:43:52.907Z,988.76
2019-03-04T06:44:52.895Z,988.54
2019-03-04T06:45:52.874Z,988.51
2019-03-04T06:46:52.885Z,988.69
2019-03-04T06:47:52.889Z,988.50
2019-03-04T06:48:52.855Z,988.53
2019-03-04T06:49:52.828Z,988.51
2019-03-04T06:50:52.839Z,988.68
2019-03-04T06:51:52.816Z,988.53
2019-03-04T06:52:52.809Z,988.51
2019-03-04T06:53:52.810Z,988.49
2019-03-04T06:54:52.776Z,988.58
2019-03-04T06:55:52.758Z,988.60
2019-03-04T06:56:54.453Z,988.57
2019-03-04T06:57:52.758Z,988.63
2019-03-04T06:58:52.746Z,988.40
2019-03-04T06:59:52.731Z,988.30
2019-03-04T07:00:52.719Z,988.35
2019-03-04T07:01:52.708Z,988.52
2019-03-04T07:02:52.684Z,988.34
2019-03-04T07:03:52.700Z,988.37
2019-03-04T07:04:52.682Z,988.28
2019-03-04T07:05:52.672Z,988.35
2019-03-04T07:06:52.639Z,988.22
2019-03-04T07:07:52.627Z,988.26
2019-03-04T07:08:52.628Z,988.23
2019-03-04T07:09:52.632Z,988.16
2019-03-04T07:10:52.602Z,988.11
2019-03-04T07:11:52.605Z,988.06
2019-03-04T07:12:52.576Z,988.05
2019-03-04T07:13:52.565Z,988.17
2019-03-04T07:14:52.594Z,988.07
2019-03-04T07:15:52.549Z,987.98
2019-03-04T07:16:52.533Z,988.03
2019-03-04T07:17:52.538Z,987.95
2019-03-04T07:18:52.544Z,987.87
2019-03-04T07:19:52.511Z,987.89
2019-03-04T07:20:52.479Z,987.91
2019-03-04T07:21:52.487Z,987.71
2019-03-04T07:22:52.463Z,987.81
2019-03-04T07:23:52.466Z,987.82
2019-03-04T07:24:52.467Z,987.87
2019-03-04T07:25:52.433Z,987.89
2019-03-04T07:26:52.432Z,987.81
2019-03-04T07:27:52.404Z,987.81
2019-03-04T07:28:52.405Z,987.91
2019-03-04T07:29:52.399Z,987.83
2019-03-04T07:30:54.329Z,987.77
2019-03-04T07:31:52.359Z,987.83
2019-03-04T07:32:52.356Z,987.75
2019-03-04T07:33:52.354Z,987.66
2019-03-04T07:34:52.355Z,987.73
2019-03-04T07:35:52.315Z,987.56
2019-03-04T07:36:52.319Z,987.49
2019-03-04T07:37:52.307Z,987.46
2019-03-04T07:38:52.284Z,987.58
2019-03-04T07:39:52.298Z,987.66
2019-03-04T07:40:52.275Z,987.63
2019-03-04T07:41:52.251Z,987.46
2019-03-04T07:42:52.262Z,987.43
2019-03-04T07:43:52.233Z,987.40
2019-03-04T07:44:52.271Z,987.32
2019-03-04T07:45:52.213Z,987.37
2019-03-04T07:46:52.202Z,987.31
2019-03-04T07:47:52.188Z,987.28
2019-03-04T07:48:52.180Z,987.25
2019-03-04T07:49:52.174Z,987.24
2019-03-04T07:50:52.165Z,987.30
2019-03-04T07:51:52.144Z,987.30
2019-03-04T07:52:52.136Z,987.21
2019-03-04T07:53:52.115Z,987.19
2019-03-04T07:54:52.114Z,987.12
2019-03-04T07:55:52.130Z,987.06
2019-03-04T07:56:52.078Z,987.19
2019-03-04T07:57:52.090Z,987.08
2019-03-04T07:58:52.060Z,986.91
2019-03-04T07:59:52.054Z,986.89
2019-03-04T08:00:52.079Z,986.86
2019-03-04T08:01:52.038Z,986.93
2019-03-04T08:02:52.033Z,987.02
2019-03-04T08:03:52.020Z,987.01
2019-03-04T08:04:52.004Z,987.00
2019-03-04T08:05:51.993Z,987.15
2019-03-04T08:06:52.006Z,986.97
2019-03-04T08:07:51.983Z,987.02
2019-03-04T08:08:51.956Z,986.89
2019-03-04T08:09:51.952Z,986.98
2019-03-04T08:10:51.949Z,986.80
2019-03-04T08:11:51.943Z,987.00
2019-03-04T08:12:51.914Z,987.02
2019-03-04T08:13:51.904Z,986.85
2019-03-04T08:14:51.888Z,986.82
2019-03-04T08:15:51.881Z,986.78
2019-03-04T08:16:51.886Z,986.77
2019-03-04T08:17:51.855Z,986.62
2019-03-04T08:18:51.852Z,986.62
2019-03-04T08:19:51.832Z,986.64
2019-03-04T08:20:51.822Z,986.49
2019-03-04T08:21:51.839Z,986.60
2019-03-04T08:22:51.797Z,986.35
2019-03-04T08:23:51.781Z,986.27
2019-03-04T08:24:51.774Z,986.31
2019-03-04T08:25:51.772Z,986.36
2019-03-04T08:26:51.824Z,986.33
2019-03-04T08:27:52.478Z,986.15
2019-03-04T08:28:51.725Z,985.99
2019-03-04T08:29:51.724Z,986.03
2019-03-04T08:30:51.716Z,986.11
2019-03-04T08:31:51.716Z,986.14
2019-03-04T08:32:51.708Z,986.03
2019-03-04T08:33:51.700Z,986.01
2019-03-04T08:34:51.711Z,985.92
2019-03-04T08:35:51.653Z,985.89
2019-03-04T08:36:51.648Z,985.83
2019-03-04T08:37:51.652Z,985.73
2019-03-04T08:38:52.492Z,985.69
2019-03-04T08:39:51.608Z,985.67
2019-03-04T08:40:51.626Z,985.81
2019-03-04T08:41:51.606Z,986.13
2019-03-04T08:42:51.589Z,986.01
2019-03-04T08:43:51.570Z,985.88
2019-03-04T08:44:51.556Z,985.61
2019-03-04T08:45:51.561Z,985.51
2019-03-04T08:46:51.528Z,985.55
2019-03-04T08:47:51.532Z,985.62
2019-03-04T08:48:51.517Z,985.51
2019-03-04T08:49:51.513Z,985.45
2019-03-04T08:50:51.501Z,985.37
2019-03-04T08:51:51.499Z,985.56
2019-03-04T08:52:51.483Z,985.41
2019-03-04T08:53:51.464Z,985.35
2019-03-04T08:54:51.445Z,985.27
2019-03-04T08:55:51.433Z,985.21
2019-03-04T08:56:51.424Z,985.23
2019-03-04T08:57:51.419Z,985.54
2019-03-04T08:58:51.410Z,985.43
2019-03-04T08:59:51.433Z,985.64
2019-03-04T09:00:51.384Z,985.57
2019-03-04T09:01:51.369Z,985.65
2019-03-04T09:02:51.396Z,985.62
2019-03-04T09:03:51.343Z,985.55
2019-03-04T09:04:51.339Z,985.53
2019-03-04T09:05:51.324Z,985.43
2019-03-04T09:06:51.300Z,985.34
2019-03-04T09:07:51.343Z,985.26
2019-03-04T09:08:51.293Z,985.30
2019-03-04T09:09:51.277Z,985.12
2019-03-04T09:10:51.267Z,985.15
2019-03-04T09:11:51.257Z,985.05
2019-03-04T09:12:51.263Z,985.21
2019-03-04T09:13:51.237Z,985.26
2019-03-04T09:14:51.215Z,985.14
2019-03-04T09:15:51.227Z,985.17
2019-03-04T09:16:51.196Z,985.25
2019-03-04T09:17:51.204Z,985.07
2019-03-04T09:18:51.178Z,984.92
2019-03-04T09:19:51.167Z,984.86
2019-03-04T09:20:51.157Z,984.85
2019-03-04T09:21:51.148Z,984.78
2019-03-04T09:22:51.165Z,984.77
2019-03-04T09:23:51.139Z,984.75
2019-03-04T09:24:51.102Z,984.66
2019-03-04T09:25:51.088Z,984.77
2019-03-04T09:26:51.090Z,984.70
2019-03-04T09:27:51.080Z,984.63
2019-03-04T09:28:51.109Z,984.76
2019-03-04T09:29:51.079Z,984.76
2019-03-04T09:30:51.042Z,984.86
2019-03-04T09:31:51.029Z,984.83
2019-03-04T09:32:51.016Z,984.76
2019-03-04T09:33:51.016Z,984.75
2019-03-04T09:34:51.000Z,984.78
2019-03-04T09:35:50.989Z,984.84
2019-03-04T09:36:50.991Z,984.87
2019-03-04T09:37:50.958Z,984.91
2019-03-04T09:38:50.966Z,984.79
2019-03-04T09:39:50.938Z,984.68
2019-03-04T09:40:50.939Z,984.71
2019-03-04T09:41:52.492Z,984.66
2019-03-04T09:42:50.925Z,984.74
2019-03-04T09:43:50.917Z,984.54
2019-03-04T09:44:50.892Z,984.62
2019-03-04T09:45:50.880Z,984.66
2019-03-04T09:46:50.855Z,984.76
2019-03-04T09:47:50.859Z,984.81
2019-03-04T09:48:50.914Z,984.74
2019-03-04T09:49:50.837Z,984.69
2019-03-04T09:50:50.821Z,984.83
2019-03-04T09:51:50.818Z,984.75
2019-03-04T09:52:50.800Z,984.66
2019-03-04T09:53:50.797Z,984.63
2019-03-04T09:54:50.784Z,984.69
2019-03-04T09:55:50.766Z,984.60
2019-03-04T09:56:50.762Z,984.59
2019-03-04T09:57:50.744Z,984.52
2019-03-04T09:58:50.776Z,984.67
2019-03-04T09:59:50.723Z,984.66
2019-03-04T10:00:50.738Z,984.54
2019-03-04T10:01:50.695Z,984.55
2019-03-04T10:02:50.699Z,984.61
2019-03-04T10:03:50.688Z,984.52
2019-03-04T10:04:50.683Z,984.57
2019-03-04T10:05:50.657Z,984.47
2019-03-04T10:06:50.653Z,984.41
2019-03-04T10:07:50.637Z,984.40
2019-03-04T10:08:50.615Z,984.47
2019-03-04T10:09:50.633Z,984.50
2019-03-04T10:10:50.598Z,984.39
2019-03-04T10:11:50.599Z,984.25
2019-03-04T10:12:50.565Z,984.31
2019-03-04T10:13:50.578Z,984.28
2019-03-04T10:14:50.592Z,984.17
2019-03-04T10:15:50.556Z,984.16
2019-03-04T10:16:50.540Z,983.98
2019-03-04T10:17:50.532Z,984.09
2019-03-04T10:18:50.517Z,983.96
2019-03-04T10:19:50.515Z,984.06
2019-03-04T10:20:50.522Z,983.95
2019-03-04T10:21:50.463Z,983.94
2019-03-04T10:22:50.473Z,983.97
2019-03-04T10:23:50.476Z,983.82
2019-03-04T10:24:50.521Z,983.74
2019-03-04T10:25:50.450Z,983.64
2019-03-04T10:26:50.433Z,983.76
2019-03-04T10:27:50.415Z,983.84
2019-03-04T10:28:50.404Z,983.67
2019-03-04T10:29:50.379Z,983.75
2019-03-04T10:30:50.456Z,983.73
2019-03-04T10:31:50.367Z,983.69
2019-03-04T10:32:50.368Z,983.63
2019-03-04T10:33:50.343Z,983.71
2019-03-04T10:34:50.354Z,983.63
2019-03-04T10:35:50.363Z,983.72
2019-03-04T10:36:50.318Z,983.68
2019-03-04T10:37:50.298Z,983.77
2019-03-04T10:38:50.349Z,983.85
2019-03-04T10:39:50.295Z,983.67
2019-03-04T10:40:50.322Z,983.62
2019-03-04T10:41:50.301Z,983.66
2019-03-04T10:42:50.250Z,983.67
2019-03-04T10:43:50.230Z,983.66
2019-03-04T10:44:50.218Z,983.71
2019-03-04T10:45:50.222Z,983.55
2019-03-04T10:46:50.237Z,983.67
2019-03-04T10:47:50.192Z,983.68
2019-03-04T10:48:50.189Z,983.44
2019-03-04T10:49:50.175Z,983.43
2019-03-04T10:50:50.154Z,983.54
2019-03-04T10:51:50.159Z,983.49
2019-03-04T10:52:50.167Z,983.36
2019-03-04T10:53:50.125Z,983.32
2019-03-04T10:54:50.130Z,983.29
2019-03-04T10:55:50.099Z,983.34
2019-03-04T10:56:50.089Z,983.25
2019-03-04T10:57:50.093Z,983.17
2019-03-04T10:58:50.087Z,983.35
2019-03-04T10:59:50.048Z,983.21
2019-03-04T11:00:50.037Z,983.29
2019-03-04T11:01:50.257Z,983.38
2019-03-04T11:02:50.049Z,983.40
2019-03-04T11:03:50.021Z,983.25
2019-03-04T11:04:49.997Z,983.43
2019-03-04T11:05:49.990Z,983.37
2019-03-04T11:06:49.974Z,983.37
2019-03-04T11:07:49.984Z,983.49
2019-03-04T11:08:49.956Z,983.38
2019-03-04T11:09:49.937Z,983.51
2019-03-04T11:10:49.933Z,983.69
2019-03-04T11:11:49.928Z,983.49
2019-03-04T11:12:49.913Z,983.48
2019-03-04T11:13:49.926Z,983.57
2019-03-04T11:14:49.926Z,983.72
2019-03-04T11:15:49.916Z,983.72
2019-03-04T11:16:49.864Z,983.66
2019-03-04T11:17:50.518Z,983.62
2019-03-04T11:18:49.888Z,983.61
2019-03-04T11:19:50.442Z,983.37
2019-03-04T11:20:49.871Z,983.60
2019-03-04T11:21:49.812Z,983.54
2019-03-04T11:22:49.887Z,983.84
2019-03-04T11:23:49.809Z,983.74
2019-03-04T11:24:49.812Z,983.68
2019-03-04T11:25:49.781Z,984.86
2019-03-04T11:26:49.760Z,985.55
2019-03-04T11:27:49.741Z,985.04
2019-03-04T11:28:49.799Z,985.32
2019-03-04T11:29:49.726Z,985.12
2019-03-04T11:30:49.722Z,985.20
2019-03-04T11:31:49.698Z,985.29
2019-03-04T11:32:49.697Z,985.23
2019-03-04T11:33:49.739Z,985.41
2019-03-04T11:34:49.672Z,985.33
2019-03-04T11:35:49.657Z,985.80
2019-03-04T11:36:49.656Z,985.28
2019-03-04T11:37:49.626Z,985.44
2019-03-04T11:38:49.621Z,985.48
2019-03-04T11:39:49.636Z,985.50
2019-03-04T11:40:49.768Z,985.52
2019-03-04T11:41:49.579Z,985.37
2019-03-04T11:42:50.581Z,985.59
2019-03-04T11:43:49.564Z,985.62
2019-03-04T11:44:49.603Z,985.46
2019-03-04T11:45:49.557Z,985.60
2019-03-04T11:46:49.531Z,985.63
2019-03-04T11:47:49.526Z,985.35
2019-03-04T11:48:49.519Z,985.61
2019-03-04T11:49:49.513Z,985.50
2019-03-04T11:50:49.505Z,985.54
2019-03-04T11:51:49.472Z,985.46
2019-03-04T11:52:49.466Z,985.58
2019-03-04T11:53:49.489Z,985.70
2019-03-04T11:54:49.445Z,985.47
2019-03-04T11:55:49.445Z,985.56
2019-03-04T11:56:49.439Z,985.46
2019-03-04T11:57:49.412Z,985.35
2019-03-04T11:58:49.389Z,985.42
2019-03-04T11:59:49.381Z,985.14
2019-03-04T12:00:49.380Z,985.02
2019-03-04T12:01:49.387Z,985.15
2019-03-04T12:02:49.351Z,985.08
2019-03-04T12:03:49.355Z,985.03
2019-03-04T12:04:49.332Z,985.07
2019-03-04T12:05:49.338Z,985.10
2019-03-04T12:06:49.312Z,984.88
2019-03-04T12:07:49.306Z,984.83
2019-03-04T12:08:49.284Z,984.87
2019-03-04T12:09:49.293Z,984.86
2019-03-04T12:10:49.292Z,984.64
2019-03-04T12:11:49.255Z,984.67
2019-03-04T12:12:49.243Z,984.68
2019-03-04T12:13:49.241Z,984.65
2019-03-04T12:14:49.224Z,984.64
2019-03-04T12:15:49.240Z,984.65
2019-03-04T12:16:49.202Z,984.71
2019-03-04T12:17:49.208Z,984.47
2019-03-04T12:18:49.168Z,984.57
2019-03-04T12:19:49.180Z,984.66
2019-03-04T12:20:49.185Z,984.51
2019-03-04T12:21:49.141Z,984.58
2019-03-04T12:22:49.144Z,984.58
2019-03-04T12:23:49.131Z,984.68
2019-03-04T12:24:49.111Z,984.72
2019-03-04T12:25:49.128Z,984.50
2019-03-04T12:26:49.089Z,984.54
2019-03-04T12:27:49.091Z,984.46
2019-03-04T12:28:49.066Z,984.48